Stamford, United Kingdom
Current Conditions -  °F | °C
As of 8:50 PM on Friday 28 Nov 2014 (Local Time) from EGXT Reporting Station
Haze Haze  
Wind Chill: 44°   Ceiling: 14000
Heat Index: 48°   Visibility: 1.9mi
Dew Point: 48°   Wind: 9mph
Humidity: 100%   Direction: 60°ENE
Pressure: 29.74"   Gusts: NA
Location:  52.65°N, 0.48°W
Report Text: EGXT 282050Z AUTO 06008KT 3100 BR SCT004/// SCT070/// BKN140/// 09/09 Q1007
Loading
Personal Weather Stations






























Interactive Weather Map New forecast layout! Learn more

10-Day Weather Forecast

Advertisements
Track Severe Weather on mobile